createdAt,value
2023-05-21T00:02:17.921Z,61.90
2023-05-21T00:04:45.328Z,61.90
2023-05-21T00:07:12.890Z,62.00
2023-05-21T00:09:40.147Z,62.10
2023-05-21T00:12:08.021Z,62.20
2023-05-21T00:14:35.425Z,62.40
2023-05-21T00:17:02.584Z,63.10
2023-05-21T00:19:29.633Z,62.60
2023-05-21T00:21:57.825Z,62.60
2023-05-21T00:24:24.782Z,62.70
2023-05-21T00:26:51.767Z,62.80
2023-05-21T00:29:18.774Z,62.80
2023-05-21T00:31:45.951Z,62.90
2023-05-21T00:34:13.933Z,63.10
2023-05-21T00:36:40.984Z,63.20
2023-05-21T00:39:09.032Z,63.20
2023-05-21T00:41:36.058Z,63.30
2023-05-21T00:44:03.220Z,63.50
2023-05-21T00:46:30.374Z,63.60
2023-05-21T00:48:58.552Z,63.70
2023-05-21T00:51:25.957Z,63.70
2023-05-21T00:53:53.387Z,63.90
2023-05-21T00:56:22.767Z,64.00
2023-05-21T00:58:52.031Z,64.20
2023-05-21T01:01:19.530Z,64.30
2023-05-21T01:03:48.727Z,64.40
2023-05-21T01:06:16.209Z,64.50
2023-05-21T01:08:44.223Z,64.70
2023-05-21T01:11:11.180Z,64.80
2023-05-21T01:13:40.068Z,64.90
2023-05-21T01:16:09.113Z,65.10
2023-05-21T01:18:38.119Z,65.20
2023-05-21T01:21:05.594Z,65.30
2023-05-21T01:23:32.783Z,65.40
2023-05-21T01:25:59.916Z,65.60
2023-05-21T01:28:26.907Z,65.70
2023-05-21T01:30:53.851Z,65.80
2023-05-21T01:33:28.182Z,66.00
2023-05-21T01:35:58.697Z,66.30
2023-05-21T01:38:41.794Z,66.40
2023-05-21T01:41:11.535Z,66.60
2023-05-21T01:43:39.821Z,66.70
2023-05-21T01:46:07.921Z,66.80
2023-05-21T01:48:35.052Z,67.00
2023-05-21T01:51:03.764Z,67.20
2023-05-21T01:53:31.031Z,67.30
2023-05-21T01:55:59.434Z,67.40
2023-05-21T01:58:26.452Z,67.60
2023-05-21T02:00:53.399Z,67.70
2023-05-21T02:03:20.848Z,67.80
2023-05-21T02:05:47.879Z,68.00
2023-05-21T02:08:15.555Z,68.70
2023-05-21T02:10:42.571Z,68.30
2023-05-21T02:13:09.653Z,68.40
2023-05-21T02:15:36.988Z,68.60
2023-05-21T02:18:04.642Z,68.80
2023-05-21T02:20:31.856Z,68.90
2023-05-21T02:22:58.892Z,69.00
2023-05-21T02:25:26.044Z,69.20
2023-05-21T02:27:54.161Z,69.30
2023-05-21T02:30:21.197Z,69.40
2023-05-21T02:32:48.995Z,69.60
2023-05-21T02:35:16.336Z,69.80
2023-05-21T02:37:44.386Z,70.00
2023-05-21T02:40:11.688Z,70.00
2023-05-21T02:42:40.248Z,70.20
2023-05-21T02:45:09.113Z,70.30
2023-05-21T02:47:36.438Z,70.40
2023-05-21T02:50:03.694Z,70.50
2023-05-21T02:52:30.838Z,70.60
2023-05-21T02:54:57.788Z,70.80
2023-05-21T02:57:24.785Z,70.90
2023-05-21T02:59:51.755Z,71.00
2023-05-21T03:02:18.788Z,71.20
2023-05-21T03:04:49.084Z,71.30
2023-05-21T03:07:18.306Z,71.40
2023-05-21T03:09:45.363Z,71.60
2023-05-21T03:12:12.512Z,71.70
2023-05-21T03:14:39.565Z,71.70
2023-05-21T03:17:07.260Z,71.80
2023-05-21T03:19:37.484Z,72.00
2023-05-21T03:22:04.782Z,72.10
2023-05-21T03:24:32.014Z,72.20
2023-05-21T03:27:01.211Z,72.20
2023-05-21T03:29:28.704Z,72.30
2023-05-21T03:31:55.995Z,72.40
2023-05-21T03:34:23.381Z,72.60
2023-05-21T03:36:50.677Z,72.60
2023-05-21T03:39:18.020Z,72.70
2023-05-21T03:41:45.105Z,72.80
2023-05-21T03:44:12.170Z,72.90
2023-05-21T03:46:39.183Z,73.00
2023-05-21T03:49:06.448Z,73.10
2023-05-21T03:51:33.460Z,73.30
2023-05-21T03:54:01.527Z,73.30
2023-05-21T03:56:28.647Z,73.50
2023-05-21T03:58:55.764Z,73.60
2023-05-21T04:01:22.897Z,73.60
2023-05-21T04:03:50.097Z,73.80
2023-05-21T04:06:17.134Z,73.90
2023-05-21T04:08:44.696Z,74.00
2023-05-21T04:11:11.742Z,74.10
2023-05-21T04:13:39.232Z,74.10
2023-05-21T04:16:09.174Z,74.30
2023-05-21T04:18:36.325Z,74.30
2023-05-21T04:21:03.414Z,74.40
2023-05-21T04:23:30.383Z,74.50
2023-05-21T04:25:57.356Z,74.60
2023-05-21T04:28:24.298Z,74.70
2023-05-21T04:30:51.434Z,74.70
2023-05-21T04:33:21.009Z,74.80
2023-05-21T04:35:50.237Z,74.90
2023-05-21T04:38:20.372Z,75.00
2023-05-21T04:40:52.450Z,75.00
2023-05-21T04:43:26.542Z,75.10
2023-05-21T04:45:55.137Z,75.20
2023-05-21T04:48:27.231Z,75.20
2023-05-21T04:50:54.566Z,75.30
2023-05-21T04:53:22.424Z,75.30
2023-05-21T04:55:49.925Z,75.40
2023-05-21T04:58:18.453Z,75.40
2023-05-21T05:00:51.028Z,76.00
2023-05-21T05:03:18.415Z,75.50
2023-05-21T05:05:48.643Z,75.50
2023-05-21T05:08:16.433Z,75.60
2023-05-21T05:10:43.555Z,75.70
2023-05-21T05:13:10.611Z,75.70
2023-05-21T05:15:37.807Z,75.80
2023-05-21T05:18:05.153Z,75.80
2023-05-21T05:20:32.193Z,75.80
2023-05-21T05:22:59.227Z,75.80
2023-05-21T05:25:27.032Z,75.90
2023-05-21T05:27:54.022Z,75.90
2023-05-21T05:30:21.160Z,76.40
2023-05-21T05:32:48.292Z,76.00
2023-05-21T05:35:15.321Z,76.00
2023-05-21T05:37:42.490Z,76.00
2023-05-21T05:40:09.664Z,76.00
2023-05-21T05:42:36.663Z,76.00
2023-05-21T05:45:04.025Z,76.00
2023-05-21T05:47:31.559Z,76.00
2023-05-21T05:49:58.691Z,76.10
2023-05-21T05:52:25.677Z,76.00
2023-05-21T05:54:52.684Z,76.00
2023-05-21T05:57:19.720Z,76.00
2023-05-21T05:59:46.661Z,75.90
2023-05-21T06:02:13.681Z,75.80
2023-05-21T06:04:40.736Z,75.80
2023-05-21T06:07:07.698Z,75.70
2023-05-21T06:09:34.729Z,75.70
2023-05-21T06:12:01.866Z,75.60
2023-05-21T06:14:28.951Z,75.70
2023-05-21T06:16:55.907Z,75.50
2023-05-21T06:19:23.010Z,75.20
2023-05-21T06:21:50.658Z,75.10
2023-05-21T06:24:17.927Z,74.80
2023-05-21T06:26:44.892Z,74.50
2023-05-21T06:29:13.048Z,74.30
2023-05-21T06:31:41.299Z,74.10
2023-05-21T06:34:08.319Z,73.90
2023-05-21T06:36:35.344Z,73.70
2023-05-21T06:39:03.400Z,73.50
2023-05-21T06:41:30.527Z,73.30
2023-05-21T06:43:57.789Z,73.00
2023-05-21T06:46:24.802Z,72.80
2023-05-21T06:48:51.806Z,72.60
2023-05-21T06:51:18.738Z,72.40
2023-05-21T06:53:45.813Z,72.30
2023-05-21T06:56:13.330Z,72.20
2023-05-21T06:58:40.411Z,72.00
2023-05-21T07:01:07.640Z,71.70
2023-05-21T07:03:34.735Z,71.50
2023-05-21T07:06:01.971Z,71.40
2023-05-21T07:08:29.080Z,71.10
2023-05-21T07:10:59.121Z,70.90
2023-05-21T07:13:26.259Z,70.70
2023-05-21T07:15:53.456Z,70.50
2023-05-21T07:18:20.637Z,70.40
2023-05-21T07:20:47.574Z,70.20
2023-05-21T07:23:14.579Z,70.00
2023-05-21T07:25:41.556Z,69.90
2023-05-21T07:28:08.644Z,69.60
2023-05-21T07:30:35.686Z,69.40
2023-05-21T07:33:02.751Z,69.20
2023-05-21T07:35:29.712Z,69.20
2023-05-21T07:37:56.830Z,69.00
2023-05-21T07:40:23.933Z,68.80
2023-05-21T07:43:01.555Z,68.60
2023-05-21T07:45:29.097Z,68.40
2023-05-21T07:48:18.985Z,68.30
2023-05-21T07:51:08.771Z,68.00
2023-05-21T08:01:20.549Z,67.30
2023-05-21T08:04:28.167Z,67.00
2023-05-21T08:07:09.394Z,66.70
2023-05-21T08:09:44.694Z,66.50
2023-05-21T08:12:51.356Z,66.30
2023-05-21T08:15:18.404Z,66.10
2023-05-21T08:17:48.513Z,65.90
2023-05-21T08:20:15.575Z,65.60
2023-05-21T08:22:43.840Z,65.50
2023-05-21T08:25:11.017Z,65.50
2023-05-21T08:27:38.503Z,65.40
2023-05-21T08:30:06.205Z,65.30
2023-05-21T08:32:33.314Z,65.00
2023-05-21T08:35:00.970Z,64.90
2023-05-21T08:37:27.977Z,64.60
2023-05-21T08:39:55.300Z,64.40
2023-05-21T08:42:37.121Z,64.20
2023-05-21T08:45:08.715Z,64.00
2023-05-21T08:47:41.425Z,63.70
2023-05-21T08:50:13.313Z,63.50
2023-05-21T08:52:41.058Z,63.30
2023-05-21T08:55:09.143Z,63.30
2023-05-21T08:57:36.383Z,63.10
2023-05-21T09:00:04.934Z,63.00
2023-05-21T09:02:35.305Z,62.90
2023-05-21T09:05:03.471Z,62.70
2023-05-21T09:07:31.860Z,62.30
2023-05-21T09:10:02.613Z,62.10
2023-05-21T09:12:29.631Z,61.90
2023-05-21T09:14:58.622Z,61.70
2023-05-21T09:17:25.779Z,61.30
2023-05-21T09:20:18.980Z,61.20
2023-05-21T09:22:52.484Z,61.20
2023-05-21T09:25:34.964Z,61.20
2023-05-21T09:28:11.366Z,61.10
2023-05-21T09:30:43.841Z,60.90
2023-05-21T09:33:12.331Z,60.80
2023-05-21T09:35:46.708Z,60.80
2023-05-21T09:38:13.836Z,60.90
2023-05-21T09:40:45.805Z,60.90
2023-05-21T09:43:16.523Z,60.90
2023-05-21T09:46:02.499Z,60.70
2023-05-21T09:52:27.738Z,60.40
2023-05-21T09:54:54.599Z,60.20
2023-05-21T09:57:27.691Z,60.00
2023-05-21T09:59:54.818Z,59.80
2023-05-21T10:02:23.090Z,59.90
2023-05-21T10:04:51.068Z,59.70
2023-05-21T10:07:26.055Z,59.60
2023-05-21T10:09:57.626Z,59.40
2023-05-21T10:12:25.377Z,59.40
2023-05-21T10:14:55.354Z,59.30
2023-05-21T10:17:22.560Z,59.20
2023-05-21T10:19:49.809Z,59.20
2023-05-21T10:22:17.100Z,59.20
2023-05-21T10:24:45.124Z,59.20
2023-05-21T10:27:13.670Z,59.20
2023-05-21T10:29:40.751Z,59.00
2023-05-21T10:32:09.017Z,58.90
2023-05-21T10:34:36.209Z,58.70
2023-05-21T10:37:03.668Z,58.60
2023-05-21T10:39:31.923Z,58.40
2023-05-21T10:42:07.261Z,58.30
2023-05-21T10:44:50.321Z,58.40
2023-05-21T10:47:47.033Z,58.40
2023-05-21T10:50:27.104Z,58.30
2023-05-21T10:57:13.642Z,58.10
2023-05-21T10:59:44.145Z,58.00
2023-05-21T11:02:12.962Z,58.00
2023-05-21T11:04:42.589Z,57.80
2023-05-21T11:07:09.595Z,57.50
2023-05-21T11:09:36.624Z,57.30
2023-05-21T11:12:04.809Z,57.20
2023-05-21T11:14:43.120Z,57.10
2023-05-21T11:17:16.581Z,56.80
2023-05-21T11:19:44.198Z,56.80
2023-05-21T11:22:23.308Z,56.90
2023-05-21T11:24:51.541Z,57.00
2023-05-21T11:27:38.067Z,57.10
2023-05-21T11:30:25.496Z,57.10
2023-05-21T11:33:16.862Z,56.80
2023-05-21T11:35:59.926Z,56.60
2023-05-21T11:38:34.296Z,56.60
2023-05-21T11:41:04.426Z,56.40
2023-05-21T11:43:31.535Z,56.20
2023-05-21T11:45:58.619Z,56.20
2023-05-21T11:48:28.883Z,56.10
2023-05-21T11:50:57.685Z,56.00
2023-05-21T11:53:25.019Z,55.80
2023-05-21T11:55:57.614Z,55.70
2023-05-21T11:58:24.875Z,55.70
2023-05-21T12:00:52.216Z,55.60
2023-05-21T12:03:20.103Z,55.70
2023-05-21T12:05:47.680Z,55.70
2023-05-21T12:08:21.690Z,55.70
2023-05-21T12:10:48.719Z,55.40
2023-05-21T12:13:16.147Z,55.40
2023-05-21T12:15:43.169Z,55.50
2023-05-21T12:18:10.340Z,55.30
2023-05-21T12:20:37.652Z,55.20
2023-05-21T12:23:05.063Z,55.00
2023-05-21T12:25:34.840Z,55.10
2023-05-21T12:28:03.588Z,55.10
2023-05-21T12:30:30.790Z,54.90
2023-05-21T12:33:02.671Z,54.80
2023-05-21T12:35:30.858Z,54.70
2023-05-21T12:37:58.004Z,54.40
2023-05-21T12:40:36.369Z,54.20
2023-05-21T12:43:03.874Z,54.00
2023-05-21T12:45:32.584Z,54.00
2023-05-21T12:48:03.364Z,53.90
2023-05-21T12:50:30.662Z,53.70
2023-05-21T12:52:58.742Z,53.70
2023-05-21T12:55:28.850Z,53.70
2023-05-21T12:58:08.788Z,53.60
2023-05-21T13:00:36.752Z,53.60
2023-05-21T13:03:06.892Z,53.80
2023-05-21T13:05:34.718Z,53.80
2023-05-21T13:08:01.871Z,53.80
2023-05-21T13:10:28.960Z,53.70
2023-05-21T13:12:56.001Z,53.80
2023-05-21T13:15:23.000Z,53.90
2023-05-21T13:17:51.162Z,53.90
2023-05-21T13:20:26.586Z,54.00
2023-05-21T13:22:54.240Z,54.00
2023-05-21T13:25:25.236Z,54.00
2023-05-21T13:27:53.075Z,54.00
2023-05-21T13:30:20.566Z,54.00
2023-05-21T13:32:47.943Z,54.10
2023-05-21T13:35:16.836Z,54.80
2023-05-21T13:37:44.628Z,54.10
2023-05-21T13:40:12.674Z,54.00
2023-05-21T13:42:39.823Z,53.80
2023-05-21T13:45:10.833Z,53.80
2023-05-21T13:47:40.296Z,53.90
2023-05-21T13:50:09.072Z,54.00
2023-05-21T13:52:39.295Z,54.00
2023-05-21T13:55:06.892Z,53.90
2023-05-21T13:57:34.017Z,53.80
2023-05-21T14:00:01.539Z,53.80
2023-05-21T14:02:28.979Z,53.90
2023-05-21T14:04:56.113Z,54.00
2023-05-21T14:07:23.267Z,53.90
2023-05-21T14:09:50.579Z,53.90
2023-05-21T14:12:17.882Z,54.00
2023-05-21T14:14:45.026Z,53.90
2023-05-21T14:17:12.172Z,53.80
2023-05-21T14:19:41.788Z,53.90
2023-05-21T14:22:09.253Z,53.90
2023-05-21T14:24:36.552Z,53.90
2023-05-21T14:27:03.599Z,53.90
2023-05-21T14:29:30.680Z,53.80
2023-05-21T14:31:57.723Z,53.80
2023-05-21T14:34:24.949Z,54.00
2023-05-21T14:36:52.091Z,54.20
2023-05-21T14:39:19.086Z,54.20
2023-05-21T14:41:46.053Z,54.40
2023-05-21T14:44:13.230Z,54.40
2023-05-21T14:46:40.401Z,54.50
2023-05-21T14:49:07.549Z,54.50
2023-05-21T14:51:34.673Z,54.60
2023-05-21T14:54:01.706Z,54.50
2023-05-21T14:56:28.847Z,54.50
2023-05-21T14:58:56.407Z,54.50
2023-05-21T15:01:23.566Z,54.60
2023-05-21T15:03:51.072Z,55.30
2023-05-21T15:06:18.395Z,54.80
2023-05-21T15:08:45.502Z,54.90
2023-05-21T15:11:12.591Z,54.90
2023-05-21T15:13:39.895Z,54.90
2023-05-21T15:16:07.078Z,54.80
2023-05-21T15:18:34.141Z,54.70
2023-05-21T15:21:01.081Z,54.60
2023-05-21T15:23:28.379Z,54.50
2023-05-21T15:25:55.377Z,54.50
2023-05-21T15:28:23.191Z,54.50
2023-05-21T15:30:50.512Z,54.60
2023-05-21T15:33:17.567Z,54.50
2023-05-21T15:35:44.944Z,54.50
2023-05-21T15:38:12.256Z,54.50
2023-05-21T15:40:41.443Z,54.40
2023-05-21T15:43:08.490Z,54.40
2023-05-21T15:45:35.786Z,54.40
2023-05-21T15:48:02.893Z,54.30
2023-05-21T15:50:29.850Z,54.20
2023-05-21T15:52:56.793Z,54.30
2023-05-21T15:55:23.879Z,54.40
2023-05-21T15:57:50.827Z,54.50
2023-05-21T16:00:17.840Z,54.50
2023-05-21T16:02:44.892Z,54.60
2023-05-21T16:05:11.848Z,54.70
2023-05-21T16:07:38.886Z,54.70
2023-05-21T16:10:08.213Z,54.80
2023-05-21T16:12:35.203Z,54.90
2023-05-21T16:15:02.267Z,55.00
2023-05-21T16:17:29.272Z,55.10
2023-05-21T16:19:56.202Z,55.20
2023-05-21T16:22:24.126Z,55.30
2023-05-21T16:24:51.179Z,55.30
2023-05-21T16:27:18.185Z,55.40
2023-05-21T16:29:45.134Z,55.40
2023-05-21T16:32:14.213Z,55.50
2023-05-21T16:34:41.655Z,55.60
2023-05-21T16:37:09.848Z,55.70
2023-05-21T16:39:37.228Z,55.70
2023-05-21T16:42:04.481Z,55.70
2023-05-21T16:44:32.233Z,55.70
2023-05-21T16:46:59.725Z,55.60
2023-05-21T16:49:27.706Z,55.60
2023-05-21T16:51:54.744Z,55.70
2023-05-21T16:54:21.868Z,55.90
2023-05-21T16:56:48.874Z,55.90
2023-05-21T16:59:16.111Z,55.90
2023-05-21T17:01:43.295Z,56.00
2023-05-21T17:04:11.150Z,56.00
2023-05-21T17:06:40.682Z,56.00
2023-05-21T17:09:08.089Z,56.10
2023-05-21T17:11:35.304Z,56.20
2023-05-21T17:14:02.505Z,56.20
2023-05-21T17:16:32.541Z,56.20
2023-05-21T17:18:59.955Z,56.40
2023-05-21T17:21:27.534Z,56.50
2023-05-21T17:23:54.773Z,56.70
2023-05-21T17:26:24.896Z,56.90
2023-05-21T17:28:55.454Z,57.00
2023-05-21T17:31:27.882Z,57.10
2023-05-21T17:33:56.545Z,57.20
2023-05-21T17:36:26.316Z,57.30
2023-05-21T17:38:54.903Z,57.30
2023-05-21T17:41:26.998Z,57.30
2023-05-21T17:43:54.186Z,57.40
2023-05-21T17:46:24.440Z,57.40
2023-05-21T17:49:11.043Z,57.50
2023-05-21T17:51:38.289Z,57.60
2023-05-21T17:54:08.883Z,57.60
2023-05-21T17:56:39.111Z,57.60
2023-05-21T17:59:09.116Z,57.70
2023-05-21T18:01:37.701Z,57.60
2023-05-21T18:04:05.246Z,57.60
2023-05-21T18:06:33.066Z,57.60
2023-05-21T18:09:00.692Z,57.60
2023-05-21T18:11:28.055Z,57.60
2023-05-21T18:14:02.218Z,57.70
2023-05-21T18:16:38.718Z,57.70
2023-05-21T18:19:09.626Z,57.80
2023-05-21T18:21:37.345Z,57.90
2023-05-21T18:24:07.922Z,57.90
2023-05-21T18:26:35.234Z,57.90
2023-05-21T18:29:03.192Z,57.90
2023-05-21T18:31:53.345Z,57.90
2023-05-21T18:34:22.753Z,57.90
2023-05-21T18:36:49.639Z,58.00
2023-05-21T18:40:18.137Z,58.10
2023-05-21T18:46:21.087Z,58.10
2023-05-21T18:48:48.984Z,58.00
2023-05-21T18:51:17.687Z,58.00
2023-05-21T18:53:44.646Z,57.90
2023-05-21T18:56:11.987Z,57.80
2023-05-21T19:02:19.942Z,57.50
2023-05-21T19:04:47.086Z,57.50
2023-05-21T19:07:16.132Z,57.50
2023-05-21T19:09:43.236Z,57.40
2023-05-21T19:12:10.542Z,57.40
2023-05-21T19:14:38.704Z,57.40
2023-05-21T19:17:08.987Z,57.40
2023-05-21T19:19:36.641Z,57.40
2023-05-21T19:22:03.697Z,57.40
2023-05-21T19:24:34.162Z,57.40
2023-05-21T19:27:01.546Z,57.30
2023-05-21T19:29:45.872Z,57.50
2023-05-21T19:32:13.834Z,57.50
2023-05-21T19:34:45.713Z,57.60
2023-05-21T19:37:13.028Z,57.70
2023-05-21T19:39:40.762Z,57.70
2023-05-21T19:42:30.235Z,57.70
2023-05-21T19:44:59.339Z,57.70
2023-05-21T19:47:28.064Z,57.90
2023-05-21T19:49:59.863Z,57.90
2023-05-21T19:52:30.529Z,58.00
2023-05-21T19:55:07.256Z,58.10
2023-05-21T19:57:34.929Z,58.10
2023-05-21T20:00:10.552Z,58.30
2023-05-21T20:02:41.619Z,58.40
2023-05-21T20:05:15.843Z,58.50
2023-05-21T20:15:19.368Z,58.50
2023-05-21T20:17:46.601Z,58.50
2023-05-21T20:20:14.185Z,58.50
2023-05-21T20:22:42.268Z,58.60
2023-05-21T20:25:12.419Z,58.60
2023-05-21T20:27:39.442Z,58.70
2023-05-21T20:30:07.951Z,58.90
2023-05-21T20:32:35.073Z,59.00
2023-05-21T20:35:03.787Z,59.20
2023-05-21T20:37:34.254Z,59.30
2023-05-21T20:40:07.018Z,59.30
2023-05-21T20:42:36.803Z,59.30
2023-05-21T20:45:05.041Z,59.20
2023-05-21T20:47:32.415Z,59.20
2023-05-21T20:50:05.252Z,59.20
2023-05-21T20:52:32.535Z,59.00
2023-05-21T20:55:02.616Z,58.90
2023-05-21T20:57:29.962Z,58.90
2023-05-21T20:59:57.800Z,58.80
2023-05-21T21:02:25.767Z,58.80
2023-05-21T21:04:56.759Z,58.70
2023-05-21T21:07:24.356Z,58.70
2023-05-21T21:09:51.562Z,58.70
2023-05-21T21:12:26.467Z,58.70
2023-05-21T21:14:55.983Z,58.70
2023-05-21T21:17:23.416Z,58.60
2023-05-21T21:19:52.055Z,58.70
2023-05-21T21:22:19.386Z,58.70
2023-05-21T21:24:49.846Z,58.70
2023-05-21T21:27:20.351Z,58.70
2023-05-21T21:29:47.972Z,58.70
2023-05-21T21:32:15.909Z,58.60
2023-05-21T21:34:43.291Z,58.60
2023-05-21T21:37:11.636Z,58.70
2023-05-21T21:39:38.778Z,58.70
2023-05-21T21:42:06.054Z,58.70
2023-05-21T21:44:34.263Z,58.70
2023-05-21T21:47:01.844Z,58.60
2023-05-21T21:49:30.061Z,58.60
2023-05-21T21:51:58.390Z,58.50
2023-05-21T21:54:28.125Z,58.50
2023-05-21T21:56:55.727Z,58.50
2023-05-21T21:59:23.137Z,58.60
2023-05-21T22:01:50.376Z,58.60
2023-05-21T22:04:17.665Z,58.60
2023-05-21T22:06:45.993Z,58.70
2023-05-21T22:09:17.334Z,58.80
2023-05-21T22:11:44.584Z,59.00
2023-05-21T22:14:11.907Z,59.20
2023-05-21T22:16:39.298Z,59.20
2023-05-21T22:19:06.425Z,59.30
2023-05-21T22:21:33.774Z,59.40
2023-05-21T22:24:02.955Z,59.50
2023-05-21T22:26:31.160Z,59.60
2023-05-21T22:28:59.420Z,59.60
2023-05-21T22:31:29.042Z,59.60
2023-05-21T22:33:56.170Z,59.60
2023-05-21T22:36:23.455Z,59.70
2023-05-21T22:38:50.709Z,59.70
2023-05-21T22:41:22.050Z,59.80
2023-05-21T22:43:49.287Z,59.80
2023-05-21T22:46:16.387Z,60.00
2023-05-21T22:48:44.175Z,60.10
2023-05-21T22:51:11.592Z,60.20
2023-05-21T22:53:42.703Z,60.30
2023-05-21T22:56:09.712Z,60.50
2023-05-21T22:58:37.025Z,60.50
2023-05-21T23:01:04.685Z,60.70
2023-05-21T23:03:31.820Z,60.80
2023-05-21T23:05:59.037Z,60.90
2023-05-21T23:08:26.242Z,61.00
2023-05-21T23:10:53.283Z,61.10
2023-05-21T23:13:20.564Z,61.10
2023-05-21T23:15:48.760Z,61.20
2023-05-21T23:18:16.782Z,61.30
2023-05-21T23:20:44.189Z,61.30
2023-05-21T23:23:11.452Z,61.40
2023-05-21T23:25:38.575Z,61.50
2023-05-21T23:28:05.797Z,61.60
2023-05-21T23:30:32.850Z,61.60
2023-05-21T23:33:00.268Z,61.70
2023-05-21T23:35:27.311Z,61.80
2023-05-21T23:37:54.455Z,61.90
2023-05-21T23:40:21.449Z,62.00
2023-05-21T23:42:48.645Z,62.10
2023-05-21T23:45:17.430Z,62.10
2023-05-21T23:47:44.515Z,62.30
2023-05-21T23:50:11.658Z,62.40
2023-05-21T23:52:38.827Z,62.50
2023-05-21T23:55:09.053Z,62.60
2023-05-21T23:57:36.330Z,62.70
